Time;durP1;ratioP1;P1;durP2;ratioP2;P2;SDS_P1;SDS_P2;PMS_P1;PMS_P2;Temp;Humidity;BMP_temperature;BMP_pressure;BME280_temperature;BME280_humidity;BME280_pressure;Samples;Min_cycle;Max_cycle;Signal;HPM_P1;HPM_P2
2023/10/31 00:01:04;;;;;;;1.73;1.10;;;;;;;10.05;100.00;91010.72;6273759;22;20020;-77
2023/10/31 00:03:37;;;;;;;1.92;1.10;;;;;;;10.07;100.00;91013.03;6273784;22;20498;-77
2023/10/31 00:06:03;;;;;;;3.53;1.80;;;;;;;10.16;100.00;91019.72;6273159;22;20563;-76
2023/10/31 00:08:28;;;;;;;2.85;1.27;;;;;;;10.06;100.00;91029.78;6246569;22;20063;-77
2023/10/31 00:10:54;;;;;;;3.65;1.10;;;;;;;9.92;100.00;91040.50;6246105;22;20004;-76
2023/10/31 00:13:20;;;;;;;2.97;1.63;;;;;;;9.82;100.00;91046.84;6247136;22;20016;-76
2023/10/31 00:15:45;;;;;;;1.98;1.20;;;;;;;9.80;100.00;91043.78;6273533;22;20306;-76
2023/10/31 00:18:11;;;;;;;2.17;1.15;;;;;;;9.75;100.00;91042.13;6246646;22;20012;-76
2023/10/31 00:20:37;;;;;;;2.25;1.30;;;;;;;9.76;100.00;91041.03;6273567;22;20003;-76
2023/10/31 00:23:02;;;;;;;3.40;1.88;;;;;;;9.74;100.00;91040.59;6273660;22;20067;-77
2023/10/31 00:25:28;;;;;;;8.48;2.75;;;;;;;9.70;100.00;91047.50;6274012;22;20038;-77
2023/10/31 00:27:53;;;;;;;5.78;2.47;;;;;;;9.73;100.00;91059.97;6272983;22;20069;-77
2023/10/31 00:30:22;;;;;;;4.63;2.08;;;;;;;9.78;100.00;91062.41;6246284;22;20084;-77
2023/10/31 00:32:48;;;;;;;8.02;2.20;;;;;;;9.75;100.00;91064.88;6246737;22;20011;-76
2023/10/31 00:35:14;;;;;;;4.60;1.90;;;;;;;9.75;100.00;91063.03;6274056;22;20090;-76
2023/10/31 00:37:41;;;;;;;4.00;2.20;;;;;;;9.79;100.00;91065.75;6273954;22;20291;-76
2023/10/31 00:40:10;;;;;;;4.18;2.15;;;;;;;9.84;100.00;91072.66;6273673;22;20164;-77
2023/10/31 00:42:37;;;;;;;4.88;2.05;;;;;;;9.82;100.00;91074.81;6245925;22;20027;-77
2023/10/31 00:45:03;;;;;;;5.93;2.85;;;;;;;9.82;100.00;91073.00;6273557;22;20003;-77
2023/10/31 00:47:29;;;;;;;5.80;2.47;;;;;;;9.84;100.00;91065.59;6246272;22;20102;-77
2023/10/31 00:49:54;;;;;;;8.07;2.38;;;;;;;9.91;100.00;91062.50;6246747;22;20027;-77
2023/10/31 00:52:20;;;;;;;4.35;2.10;;;;;;;9.91;100.00;91059.88;6246521;22;20023;-77
2023/10/31 00:54:47;;;;;;;5.15;2.60;;;;;;;9.92;100.00;91066.63;6221727;22;20027;-77
2023/10/31 00:57:12;;;;;;;3.38;1.90;;;;;;;9.94;100.00;91067.84;6273859;22;20019;-77
2023/10/31 00:59:40;;;;;;;4.95;2.58;;;;;;;9.99;100.00;91074.75;6273868;22;20000;-75
2023/10/31 01:02:06;;;;;;;4.05;1.50;;;;;;;10.06;100.00;91082.84;6248470;22;20094;-77
2023/10/31 01:04:36;;;;;;;2.25;1.17;;;;;;;10.07;100.00;91078.41;6275642;22;20489;-77
2023/10/31 01:07:02;;;;;;;1.60;0.90;;;;;;;9.93;100.00;91078.59;6275408;22;20322;-77
2023/10/31 01:09:28;;;;;;;1.20;0.90;;;;;;;9.95;100.00;91084.28;6274960;22;20003;-77
2023/10/31 01:11:54;;;;;;;1.15;0.90;;;;;;;9.84;100.00;91070.03;6249095;22;20462;-78
2023/10/31 01:14:22;;;;;;;0.73;0.73;;;;;;;9.76;100.00;91058.56;6248900;22;20020;-78
2023/10/31 01:16:48;;;;;;;0.73;0.73;;;;;;;9.69;100.00;91053.84;6248586;22;20026;-77
2023/10/31 01:19:19;;;;;;;0.93;0.90;;;;;;;9.64;100.00;91045.41;6275778;22;20012;-77
2023/10/31 01:21:44;;;;;;;0.80;0.80;;;;;;;9.59;100.00;91048.94;6275396;22;20012;-77
2023/10/31 01:24:10;;;;;;;0.90;0.90;;;;;;;9.46;100.00;91036.91;6248116;22;20451;-77
2023/10/31 01:26:36;;;;;;;0.70;0.70;;;;;;;9.44;100.00;91031.97;6275531;22;20020;-77
2023/10/31 01:29:01;;;;;;;0.65;0.65;;;;;;;9.33;100.00;91034.16;6275006;22;20012;-77
2023/10/31 01:31:28;;;;;;;0.75;0.75;;;;;;;9.32;100.00;91009.13;6222970;22;20089;-77
2023/10/31 01:33:53;;;;;;;0.93;0.70;;;;;;;9.26;100.00;91004.41;6275347;22;20026;-76
2023/10/31 01:36:19;;;;;;;0.70;0.70;;;;;;;9.24;100.00;91007.31;6247694;22;20349;-78
2023/10/31 01:38:47;;;;;;;1.15;0.80;;;;;;;9.23;100.00;90990.13;6275354;22;20532;-77
2023/10/31 01:41:12;;;;;;;2.92;0.75;;;;;;;9.21;100.00;90992.28;6222928;22;20077;-78
2023/10/31 01:43:40;;;;;;;0.70;0.70;;;;;;;9.18;100.00;91000.72;6275673;22;20019;-77
2023/10/31 01:46:08;;;;;;;0.60;0.60;;;;;;;9.15;100.00;91004.72;6224204;22;20019;-77
2023/10/31 01:48:35;;;;;;;0.90;0.90;;;;;;;9.15;100.00;91035.31;6276133;22;20078;-77
2023/10/31 01:51:04;;;;;;;0.70;0.70;;;;;;;9.24;100.00;91056.16;6275713;22;20024;-77
2023/10/31 01:53:32;;;;;;;1.08;0.85;;;;;;;9.13;100.00;91053.88;6275297;22;20027;-77
2023/10/31 01:56:01;;;;;;;1.08;0.73;;;;;;;9.09;100.00;91042.53;6276350;22;20345;-77
2023/10/31 01:58:32;;;;;;;0.95;0.82;;;;;;;8.93;100.00;91023.97;6248365;22;19999;-76
2023/10/31 02:01:00;;;;;;;1.38;0.80;;;;;;;8.95;100.00;91010.63;6223099;22;20014;-76
2023/10/31 02:03:27;;;;;;;0.93;0.73;;;;;;;8.90;100.00;91000.38;6248111;22;20083;-77
2023/10/31 02:05:54;;;;;;;1.00;0.90;;;;;;;8.75;100.00;90994.56;6274673;22;20011;-76
2023/10/31 02:08:20;;;;;;;3.72;0.90;;;;;;;8.72;100.00;90991.81;6275579;22;20000;-76
2023/10/31 02:10:45;;;;;;;1.05;0.70;;;;;;;8.60;100.00;90989.06;6247535;22;20019;-77
2023/10/31 02:13:15;;;;;;;1.08;0.65;;;;;;;8.56;100.00;90986.31;6275524;22;20081;-77
2023/10/31 02:15:41;;;;;;;0.77;0.70;;;;;;;8.55;100.00;90982.94;6275430;22;20078;-76
2023/10/31 02:18:08;;;;;;;0.70;0.70;;;;;;;8.49;100.00;90986.78;6274844;22;20015;-76
2023/10/31 02:20:33;;;;;;;0.70;0.70;;;;;;;8.42;100.00;90996.94;6275350;22;20010;-76
2023/10/31 02:22:59;;;;;;;1.40;0.90;;;;;;;8.43;100.00;91000.31;6223609;22;20015;-76
2023/10/31 02:25:25;;;;;;;0.70;0.70;;;;;;;8.34;100.00;91014.06;6275099;22;20022;-78
2023/10/31 02:27:53;;;;;;;0.52;0.52;;;;;;;8.28;100.00;91012.69;6274785;22;20012;-78
2023/10/31 02:30:19;;;;;;;1.00;0.88;;;;;;;8.25;100.00;91025.59;6275270;22;20101;-78
2023/10/31 02:32:45;;;;;;;0.60;0.60;;;;;;;8.21;100.00;91035.09;6247303;22;20082;-77
2023/10/31 02:35:10;;;;;;;0.73;0.73;;;;;;;8.20;100.00;91038.78;6273979;22;20043;-77
2023/10/31 02:37:36;;;;;;;0.82;0.82;;;;;;;8.17;100.00;91034.16;6274063;22;20099;-76
2023/10/31 02:40:03;;;;;;;0.82;0.80;;;;;;;8.10;100.00;91047.63;6274637;22;20022;-77
2023/10/31 02:42:29;;;;;;;1.05;0.90;;;;;;;8.10;100.00;91056.22;6274813;22;20016;-77
2023/10/31 02:44:55;;;;;;;0.75;0.70;;;;;;;8.05;100.00;91053.78;6247875;22;20016;-77
2023/10/31 02:47:22;;;;;;;1.23;0.70;;;;;;;8.04;100.00;91044.44;6248171;22;20448;-78
2023/10/31 02:49:47;;;;;;;0.60;0.60;;;;;;;8.06;100.00;91054.53;6247284;22;20019;-77
2023/10/31 02:52:13;;;;;;;0.80;0.80;;;;;;;7.98;100.00;91057.91;6222285;22;20012;-78
2023/10/31 02:54:39;;;;;;;0.60;0.60;;;;;;;7.88;100.00;91043.31;6220965;22;20004;-77
2023/10/31 02:57:05;;;;;;;0.70;0.70;;;;;;;7.81;100.00;91054.19;6273938;22;20284;-75
2023/10/31 02:59:31;;;;;;;0.50;0.50;;;;;;;7.77;100.00;91060.31;6246188;22;20353;-77
2023/10/31 03:01:57;;;;;;;0.85;0.85;;;;;;;7.71;100.00;91050.03;6273413;22;20007;-77
2023/10/31 03:04:23;;;;;;;0.55;0.55;;;;;;;7.72;100.00;91050.78;6273173;22;20045;-76
2023/10/31 03:06:49;;;;;;;1.27;0.70;;;;;;;7.70;100.00;91050.31;6246952;22;20456;-78
2023/10/31 03:09:15;;;;;;;0.50;0.50;;;;;;;7.71;100.00;91033.63;6246774;22;20095;-76
2023/10/31 03:11:40;;;;;;;0.60;0.60;;;;;;;7.71;100.00;91023.97;6246565;22;20383;-76
2023/10/31 03:14:12;;;;;;;0.70;0.70;;;;;;;7.68;100.00;91011.56;6247102;22;20030;-77
2023/10/31 03:16:38;;;;;;;0.75;0.63;;;;;;;7.64;100.00;90989.81;6274496;22;20046;-78
2023/10/31 03:19:05;;;;;;;0.85;0.60;;;;;;;7.62;100.00;90968.50;6246891;22;20003;-77
2023/10/31 03:21:31;;;;;;;0.90;0.90;;;;;;;7.69;100.00;90958.41;6274375;22;20022;-77
2023/10/31 03:23:57;;;;;;;0.70;0.70;;;;;;;7.78;100.00;90962.88;6274075;22;20444;-76
2023/10/31 03:26:23;;;;;;;0.70;0.70;;;;;;;7.72;100.00;90970.03;6222108;22;20003;-77
2023/10/31 03:28:49;;;;;;;0.77;0.77;;;;;;;7.77;100.00;90975.13;6246817;22;20015;-77
2023/10/31 03:31:15;;;;;;;0.70;0.70;;;;;;;7.69;100.00;90973.25;6246814;22;20090;-77
2023/10/31 03:33:42;;;;;;;1.00;0.90;;;;;;;7.82;100.00;90992.44;6246056;22;20023;-78
2023/10/31 03:36:08;;;;;;;0.60;0.60;;;;;;;7.68;100.00;90980.31;6273082;22;20103;-77
2023/10/31 03:38:34;;;;;;;0.80;0.80;;;;;;;7.60;100.00;90990.72;6273205;22;20445;-77
2023/10/31 03:41:01;;;;;;;0.52;0.52;;;;;;;7.45;100.00;90979.66;6245766;22;20003;-76
2023/10/31 03:43:27;;;;;;;0.80;0.80;;;;;;;7.50;100.00;90973.56;6273188;22;20464;-77
2023/10/31 03:45:54;;;;;;;0.70;0.70;;;;;;;7.50;100.00;90968.34;6245887;22;20015;-77
2023/10/31 03:48:20;;;;;;;0.82;0.82;;;;;;;7.53;100.00;90970.34;6273579;22;20322;-77
2023/10/31 03:50:45;;;;;;;0.80;0.70;;;;;;;7.58;100.00;90967.56;6273129;22;20027;-77
2023/10/31 03:53:11;;;;;;;0.90;0.70;;;;;;;7.55;100.00;90972.66;6246642;22;20016;-76
2023/10/31 03:55:37;;;;;;;0.70;0.70;;;;;;;7.67;100.00;90976.16;6246244;22;20444;-77
2023/10/31 03:58:05;;;;;;;0.70;0.70;;;;;;;7.64;100.00;91004.69;6273043;22;20020;-77
2023/10/31 04:00:31;;;;;;;0.63;0.63;;;;;;;7.61;100.00;91034.69;6220389;22;20067;-77
2023/10/31 04:02:57;;;;;;;1.40;0.80;;;;;;;7.40;100.00;91070.91;6272421;22;20453;-77
2023/10/31 04:05:23;;;;;;;1.02;0.98;;;;;;;7.34;100.00;91092.16;6245538;22;20011;-78
2023/10/31 04:07:49;;;;;;;0.70;0.70;;;;;;;7.26;100.00;91099.66;6272863;22;20043;-77
2023/10/31 04:10:16;;;;;;;0.60;0.60;;;;;;;7.22;100.00;91096.09;6272842;22;20007;-78
2023/10/31 04:12:42;;;;;;;0.85;0.75;;;;;;;7.23;100.00;91081.28;6273284;22;20011;-78
2023/10/31 04:15:08;;;;;;;1.23;0.80;;;;;;;7.15;100.00;91080.16;6246111;22;20049;-78
2023/10/31 04:17:38;;;;;;;5.47;0.90;;;;;;;7.13;100.00;91066.66;6272817;22;20083;-77
2023/10/31 04:20:04;;;;;;;1.30;0.77;;;;;;;7.15;100.00;91046.31;6273374;22;20011;-77
2023/10/31 04:22:29;;;;;;;0.63;0.55;;;;;;;7.13;100.00;91019.06;6220810;22;20015;-76
2023/10/31 04:24:56;;;;;;;0.60;0.60;;;;;;;7.02;100.00;91023.75;6273322;22;20472;-76
2023/10/31 04:27:23;;;;;;;0.70;0.70;;;;;;;7.12;100.00;91007.88;6274593;22;20449;-77
2023/10/31 04:29:49;;;;;;;0.95;0.80;;;;;;;7.18;100.00;91011.91;6273326;22;20022;-76
2023/10/31 04:32:15;;;;;;;1.05;0.80;;;;;;;7.13;100.00;91019.06;6273597;22;20345;-77
2023/10/31 04:34:40;;;;;;;0.70;0.70;;;;;;;7.24;100.00;91025.53;6260207;22;20296;-76
2023/10/31 04:37:06;;;;;;;2.75;1.25;;;;;;;7.27;100.00;91012.69;6305315;22;20023;-76
2023/10/31 04:39:33;;;;;;;0.80;0.80;;;;;;;7.24;100.00;91044.50;6305746;22;20019;-76
2023/10/31 04:41:58;;;;;;;0.82;0.70;;;;;;;7.37;100.00;91049.94;6305158;22;20356;-77
2023/10/31 04:44:24;;;;;;;0.70;0.70;;;;;;;7.37;100.00;91057.75;6277486;22;20038;-76
2023/10/31 04:46:50;;;;;;;2.08;0.90;;;;;;;7.42;100.00;91063.56;6252532;22;20087;-76
2023/10/31 04:49:15;;;;;;;2.80;0.98;;;;;;;7.21;100.00;91078.97;6305186;22;20440;-77
2023/10/31 04:51:41;;;;;;;1.70;0.90;;;;;;;7.16;100.00;91076.50;6304854;22;20003;-76
2023/10/31 04:54:07;;;;;;;1.77;1.10;;;;;;;7.14;100.00;91086.44;6304799;22;20010;-76
2023/10/31 04:56:33;;;;;;;1.38;0.80;;;;;;;7.11;100.00;91088.84;6304978;22;20011;-75
2023/10/31 04:58:59;;;;;;;1.55;0.90;;;;;;;7.12;100.00;91091.16;6305613;22;20015;-77
2023/10/31 05:01:24;;;;;;;0.82;0.82;;;;;;;7.03;100.00;91111.94;6253230;22;20007;-76
2023/10/31 05:03:50;;;;;;;0.70;0.70;;;;;;;7.06;100.00;91119.13;6306557;22;20011;-77
2023/10/31 05:06:20;;;;;;;0.80;0.80;;;;;;;7.03;100.00;91134.59;6308054;22;20012;-77
2023/10/31 05:08:47;;;;;;;0.80;0.80;;;;;;;7.03;100.00;91148.34;6306957;22;20011;-76
2023/10/31 05:11:12;;;;;;;1.15;0.88;;;;;;;7.24;100.00;91135.59;6277046;22;20015;-76
2023/10/31 05:13:39;;;;;;;1.10;0.95;;;;;;;7.07;100.00;91153.75;6304707;22;20023;-76
2023/10/31 05:16:05;;;;;;;1.48;0.85;;;;;;;7.01;100.00;91179.09;6304628;22;20015;-77
2023/10/31 05:18:32;;;;;;;0.93;0.85;;;;;;;6.95;100.00;91187.31;6305065;22;20070;-77
2023/10/31 05:20:57;;;;;;;1.42;0.80;;;;;;;7.11;100.00;91172.13;6305338;22;20097;-77
2023/10/31 05:23:23;;;;;;;1.52;1.00;;;;;;;7.09;100.00;91172.41;6277492;22;20034;-75
2023/10/31 05:25:48;;;;;;;0.77;0.75;;;;;;;7.01;100.00;91173.91;6304921;22;20344;-76
2023/10/31 05:28:15;;;;;;;3.42;1.00;;;;;;;7.05;100.00;91192.31;6305040;22;20018;-76
2023/10/31 05:30:41;;;;;;;0.80;0.80;;;;;;;6.99;100.00;91196.84;6304831;22;20011;-76
2023/10/31 05:33:06;;;;;;;1.13;0.90;;;;;;;6.94;100.00;91204.00;6277741;22;20087;-76
2023/10/31 05:35:34;;;;;;;2.22;0.80;;;;;;;6.98;100.00;91197.13;6279635;22;20020;-76
2023/10/31 05:38:01;;;;;;;0.68;0.68;;;;;;;6.92;100.00;91208.72;6273937;22;20579;-77
2023/10/31 05:40:29;;;;;;;0.93;0.80;;;;;;;6.92;100.00;91191.28;6276151;22;20095;-76
2023/10/31 05:42:54;;;;;;;0.80;0.70;;;;;;;6.91;100.00;91194.94;6274273;22;20010;-77
2023/10/31 05:45:21;;;;;;;0.45;0.45;;;;;;;6.95;100.00;91198.47;6274311;22;20441;-77
2023/10/31 05:47:46;;;;;;;1.55;0.90;;;;;;;6.95;100.00;91193.28;6274209;22;20023;-77
2023/10/31 05:50:13;;;;;;;1.13;0.80;;;;;;;6.95;100.00;91189.91;6247643;22;20020;-77
2023/10/31 05:52:38;;;;;;;0.60;0.60;;;;;;;6.76;100.00;91192.69;6274209;22;20459;-76
2023/10/31 05:55:04;;;;;;;0.70;0.70;;;;;;;6.85;100.00;91207.28;6272251;22;20015;-75
2023/10/31 05:57:30;;;;;;;0.70;0.68;;;;;;;6.98;100.00;91207.53;6271434;22;20050;-76
2023/10/31 05:59:57;;;;;;;0.77;0.77;;;;;;;6.94;100.00;91204.00;6271287;22;20058;-76
2023/10/31 06:02:22;;;;;;;1.30;0.80;;;;;;;6.90;100.00;91223.84;6272272;22;20007;-77
2023/10/31 06:04:48;;;;;;;0.77;0.77;;;;;;;6.90;100.00;91223.84;6247136;22;20038;-76
2023/10/31 06:07:14;;;;;;;0.80;0.80;;;;;;;6.82;100.00;91228.69;6246964;22;20008;-78
2023/10/31 06:09:39;;;;;;;1.20;0.80;;;;;;;6.81;100.00;91242.00;6276201;22;20392;-78
2023/10/31 06:12:05;;;;;;;1.23;0.73;;;;;;;6.91;100.00;91238.38;6277137;22;19995;-78
2023/10/31 06:14:31;;;;;;;0.60;0.60;;;;;;;6.83;100.00;91230.22;6277625;22;20604;-78
2023/10/31 06:16:59;;;;;;;1.10;0.85;;;;;;;6.81;100.00;91258.34;6249436;22;20031;-78
2023/10/31 06:19:24;;;;;;;0.73;0.65;;;;;;;6.80;100.00;91248.25;6277420;22;20069;-78
2023/10/31 06:21:50;;;;;;;1.48;0.80;;;;;;;6.77;100.00;91257.41;6247933;22;20007;-77
2023/10/31 06:24:16;;;;;;;2.03;0.90;;;;;;;6.76;100.00;91260.31;6248834;22;20023;-77
2023/10/31 06:26:41;;;;;;;0.80;0.80;;;;;;;6.86;100.00;91281.66;6274000;22;20071;-76
2023/10/31 06:29:07;;;;;;;1.33;0.70;;;;;;;6.77;100.00;91270.41;6274434;22;20007;-75
2023/10/31 06:31:33;;;;;;;0.60;0.60;;;;;;;6.78;100.00;91286.81;6275887;22;20185;-77
2023/10/31 06:33:58;;;;;;;0.98;0.73;;;;;;;6.77;100.00;91283.41;6248775;22;20015;-77
2023/10/31 06:36:24;;;;;;;1.48;0.80;;;;;;;6.81;100.00;91281.78;6274864;22;20016;-77
2023/10/31 06:38:49;;;;;;;0.65;0.65;;;;;;;6.75;100.00;91269.91;6247325;22;20016;-78
2023/10/31 06:41:15;;;;;;;2.25;1.17;;;;;;;6.73;100.00;91303.25;6246326;22;20018;-76
2023/10/31 06:43:41;;;;;;;0.90;0.90;;;;;;;6.70;100.00;91287.47;6272636;22;20079;-78
2023/10/31 06:46:06;;;;;;;0.70;0.70;;;;;;;6.73;100.00;91294.69;6274085;22;20008;-77
2023/10/31 06:48:33;;;;;;;1.10;0.80;;;;;;;6.77;100.00;91291.22;6251421;22;20019;-80
2023/10/31 06:50:59;;;;;;;1.23;0.90;;;;;;;6.76;100.00;91287.09;6279203;22;20006;-80
2023/10/31 06:53:26;;;;;;;1.67;1.05;;;;;;;6.67;100.00;91283.63;6278669;22;20432;-79
2023/10/31 06:55:51;;;;;;;1.05;0.90;;;;;;;6.74;100.00;91289.19;6252157;22;20069;-80
2023/10/31 06:58:17;;;;;;;0.70;0.70;;;;;;;6.67;100.00;91284.38;6278853;22;20448;-79
2023/10/31 07:00:43;;;;;;;0.77;0.70;;;;;;;6.72;100.00;91280.91;6226925;22;20019;-79
2023/10/31 07:03:16;;;;;;;0.63;0.63;;;;;;;6.76;100.00;91284.47;6254275;22;20053;-78
2023/10/31 07:05:41;;;;;;;0.73;0.73;;;;;;;6.73;100.00;91285.03;6282996;22;20090;-79
2023/10/31 07:08:14;;;;;;;1.30;0.77;;;;;;;6.67;100.00;91286.22;6256221;22;20053;-79
2023/10/31 07:10:40;;;;;;;0.68;0.68;;;;;;;6.83;100.00;91266.66;6277302;22;20349;-79
2023/10/31 07:13:18;;;;;;;0.73;0.73;;;;;;;6.75;100.00;91272.53;6228181;22;20091;-79
2023/10/31 07:15:44;;;;;;;0.80;0.80;;;;;;;6.74;100.00;91280.63;6279932;22;20016;-80
2023/10/31 07:18:10;;;;;;;0.60;0.60;;;;;;;6.83;100.00;91282.25;6249585;22;20337;-80
2023/10/31 07:20:35;;;;;;;0.60;0.60;;;;;;;6.86;100.00;91286.84;6250554;22;20069;-78
2023/10/31 07:23:01;;;;;;;0.70;0.70;;;;;;;6.75;100.00;91295.94;6250470;22;20012;-79
2023/10/31 07:25:27;;;;;;;0.88;0.88;;;;;;;6.77;100.00;91287.84;6276478;22;20015;-79
2023/10/31 07:27:58;;;;;;;0.65;0.65;;;;;;;6.80;100.00;91303.66;6250006;22;20003;-78
2023/10/31 07:30:24;;;;;;;1.30;0.88;;;;;;;6.72;100.00;91312.13;6277477;22;20034;-78
2023/10/31 07:32:52;;;;;;;0.57;0.57;;;;;;;6.70;100.00;91316.84;6277089;22;20003;-79
2023/10/31 07:35:22;;;;;;;0.90;0.80;;;;;;;6.70;100.00;91329.84;6271165;22;20023;-81
2023/10/31 07:37:48;;;;;;;0.80;0.80;;;;;;;6.73;100.00;91328.50;6307984;22;20368;-79
2023/10/31 07:40:19;;;;;;;1.50;1.10;;;;;;;6.71;100.00;91336.59;6308602;22;20011;-79
2023/10/31 07:42:45;;;;;;;1.52;1.23;;;;;;;6.70;100.00;91339.50;6280403;22;20375;-80
2023/10/31 07:45:11;;;;;;;0.80;0.80;;;;;;;6.65;100.00;91338.53;6308261;22;20018;-78
2023/10/31 07:47:37;;;;;;;0.80;0.80;;;;;;;6.65;100.00;91343.72;6254801;22;20019;-80
2023/10/31 07:50:29;;;;;;;1.50;1.20;;;;;;;6.74;100.00;91356.81;6309652;22;20493;-79
2023/10/31 07:52:54;;;;;;;2.75;0.70;;;;;;;6.91;100.00;91355.47;6309767;22;20007;-79
2023/10/31 07:55:22;;;;;;;0.70;0.70;;;;;;;6.88;100.00;91349.78;6309718;22;20026;-80
2023/10/31 07:57:48;;;;;;;1.05;0.68;;;;;;;6.93;100.00;91353.34;6281230;22;20011;-80
2023/10/31 08:00:16;;;;;;;0.60;0.60;;;;;;;6.96;100.00;91352.75;6255835;22;20007;-81
2023/10/31 08:02:41;;;;;;;0.95;0.68;;;;;;;7.05;100.00;91346.59;6281016;22;20012;-80
2023/10/31 08:05:32;;;;;;;1.27;0.90;;;;;;;7.07;100.00;91364.53;6311160;22;20078;-80
2023/10/31 08:07:58;;;;;;;1.20;0.80;;;;;;;7.10;100.00;91353.53;6308321;22;20007;-81
2023/10/31 08:10:24;;;;;;;1.80;0.90;;;;;;;7.11;100.00;91352.44;6312142;22;20329;-79
2023/10/31 08:12:49;;;;;;;0.88;0.80;;;;;;;7.12;100.00;91364.41;6313038;22;20086;-80
2023/10/31 08:15:16;;;;;;;1.27;0.70;;;;;;;7.16;100.00;91357.56;6257122;22;20004;-81
2023/10/31 08:17:42;;;;;;;0.60;0.60;;;;;;;7.26;100.00;91367.75;6284176;22;20064;-78
2023/10/31 08:20:13;;;;;;;2.42;0.75;;;;;;;7.28;100.00;91368.22;6311163;22;19995;-80
2023/10/31 08:22:42;;;;;;;0.60;0.60;;;;;;;7.35;100.00;91365.22;6283827;22;20011;-80
2023/10/31 08:25:15;;;;;;;1.17;0.70;;;;;;;7.41;100.00;91368.50;6311703;22;20003;-80
2023/10/31 08:27:40;;;;;;;0.70;0.70;;;;;;;7.42;100.00;91377.84;6310406;22;20042;-81
2023/10/31 08:30:08;;;;;;;0.70;0.70;;;;;;;7.48;100.00;91380.06;6310290;22;20007;-81
2023/10/31 08:32:33;;;;;;;0.82;0.80;;;;;;;7.55;100.00;91387.47;6284691;22;20007;-80
2023/10/31 08:35:00;;;;;;;2.42;0.95;;;;;;;7.64;100.00;91388.31;6294697;22;20453;-80
2023/10/31 08:37:27;;;;;;;1.02;0.88;;;;;;;7.79;100.00;91389.00;6280615;22;20038;-79
2023/10/31 08:39:52;;;;;;;0.60;0.60;;;;;;;7.84;100.00;91376.66;6280388;22;20000;-79
2023/10/31 08:42:22;;;;;;;2.00;1.00;;;;;;;8.00;100.00;91390.09;6280869;22;20015;-79
2023/10/31 08:44:48;;;;;;;1.35;0.90;;;;;;;8.03;100.00;91399.16;6281688;22;20015;-78
2023/10/31 08:47:18;;;;;;;0.70;0.70;;;;;;;8.09;100.00;91397.97;6204853;22;20391;-81
2023/10/31 08:49:44;;;;;;;0.60;0.60;;;;;;;8.08;100.00;91402.44;6253632;22;20031;-80
2023/10/31 08:52:14;;;;;;;0.60;0.60;;;;;;;8.18;100.00;91403.25;6280648;22;20427;-79
2023/10/31 08:54:40;;;;;;;0.70;0.70;;;;;;;8.26;100.00;91412.94;6280863;22;20011;-79
2023/10/31 08:57:08;;;;;;;0.77;0.77;;;;;;;8.34;100.00;91420.06;6280950;22;20018;-78
2023/10/31 08:59:33;;;;;;;0.90;0.70;;;;;;;8.40;100.00;91426.75;6282165;22;20046;-79
2023/10/31 09:02:09;;;;;;;0.88;0.88;;;;;;;8.48;100.00;91431.22;6254061;22;20387;-79
2023/10/31 09:04:35;;;;;;;0.95;0.88;;;;;;;8.56;100.00;91427.13;6282918;22;20012;-78
2023/10/31 09:07:37;;;;;;;1.55;0.88;;;;;;;8.68;100.00;91437.78;6283424;22;20011;-79
2023/10/31 09:10:05;;;;;;;0.95;0.90;;;;;;;8.83;100.00;91447.06;6253396;22;20066;-79
2023/10/31 09:12:31;;;;;;;1.20;1.10;;;;;;;8.93;100.00;91443.41;6279665;22;20000;-77
2023/10/31 09:14:56;;;;;;;1.08;0.82;;;;;;;9.02;100.00;91448.69;6285033;22;20038;-79
2023/10/31 09:17:22;;;;;;;2.40;0.90;;;;;;;9.06;100.00;91454.84;6252262;22;20008;-78
2023/10/31 09:19:48;;;;;;;1.67;0.93;;;;;;;9.13;100.00;91460.38;6280587;22;20105;-79
2023/10/31 09:22:14;;;;;;;3.33;0.73;;;;;;;9.20;100.00;91463.34;6281540;22;20008;-80
2023/10/31 09:24:40;;;;;;;0.82;0.80;;;;;;;9.31;100.00;91461.97;6284565;22;20494;-79
2023/10/31 09:27:06;;;;;;;6.55;1.00;;;;;;;9.37;100.00;91467.84;6283109;22;20004;-78
2023/10/31 09:29:31;;;;;;;0.77;0.77;;;;;;;9.46;100.00;91473.09;6281925;22;20011;-80
2023/10/31 09:32:27;;;;;;;1.00;0.80;;;;;;;9.57;100.00;91474.38;6256401;22;20008;-79
2023/10/31 09:34:54;;;;;;;1.05;0.93;;;;;;;9.67;100.00;91479.28;6285199;22;20012;-80
2023/10/31 09:37:20;;;;;;;1.58;1.05;;;;;;;9.76;100.00;91479.31;6259959;22;20464;-80
2023/10/31 09:39:46;;;;;;;1.08;0.90;;;;;;;9.88;100.00;91484.69;6288375;22;20023;-79
2023/10/31 09:42:11;;;;;;;1.10;0.90;;;;;;;9.97;100.00;91493.34;6288432;22;20010;-79
2023/10/31 09:44:39;;;;;;;1.25;0.80;;;;;;;10.06;100.00;91503.78;6236337;22;20012;-79
2023/10/31 09:47:06;;;;;;;0.80;0.80;;;;;;;10.08;100.00;91504.25;6289298;22;20007;-79
2023/10/31 09:49:32;;;;;;;1.52;0.90;;;;;;;10.14;100.00;91504.91;6260585;22;20437;-79
2023/10/31 09:51:59;;;;;;;1.63;1.00;;;;;;;10.17;100.00;91512.13;6288588;22;20003;-79
2023/10/31 09:54:25;;;;;;;0.90;0.90;;;;;;;10.20;100.00;91522.75;6261059;22;20011;-79
2023/10/31 09:56:55;;;;;;;1.00;0.90;;;;;;;10.36;100.00;91528.31;6287285;22;20340;-78
2023/10/31 09:59:20;;;;;;;1.02;0.90;;;;;;;10.45;100.00;91528.34;6284570;22;20413;-80
2023/10/31 10:01:47;;;;;;;2.03;1.05;;;;;;;10.59;100.00;91530.78;6259400;22;20007;-79
2023/10/31 10:04:13;;;;;;;0.95;0.90;;;;;;;10.97;100.00;91533.50;6237055;22;20016;-80
2023/10/31 10:06:57;;;;;;;1.50;1.08;;;;;;;11.02;100.00;91535.97;6255618;22;20038;-80
2023/10/31 10:09:23;;;;;;;3.20;1.00;;;;;;;11.41;100.00;91538.63;6282136;22;20011;-80
2023/10/31 10:11:49;;;;;;;1.00;0.90;;;;;;;11.70;100.00;91543.16;6281927;22;20006;-80
2023/10/31 10:14:16;;;;;;;1.88;1.10;;;;;;;11.58;100.00;91546.44;6281353;22;20015;-80
2023/10/31 10:16:42;;;;;;;0.77;0.75;;;;;;;11.53;100.00;91551.06;6252903;22;20002;-81
2023/10/31 10:19:21;;;;;;;1.23;1.13;;;;;;;11.40;100.00;91553.59;6251602;22;20016;-81
2023/10/31 10:21:54;;;;;;;2.40;0.90;;;;;;;11.34;100.00;91552.22;6281804;22;20018;-78
2023/10/31 10:24:20;;;;;;;;;;;;;;;11.42;100.00;91558.53;6286479;22;20099;-81
2023/10/31 10:26:46;;;;;;;1.75;1.20;;;;;;;11.46;100.00;91554.22;6257342;22;19911;-80
2023/10/31 10:29:12;;;;;;;1.42;1.10;;;;;;;11.26;100.00;91555.66;6284609;22;20026;-81
2023/10/31 10:31:38;;;;;;;1.50;1.10;;;;;;;11.18;100.00;91551.94;6283714;22;19996;-81
2023/10/31 10:34:04;;;;;;;1.35;1.10;;;;;;;11.19;100.00;91550.88;6256075;22;20023;-79
2023/10/31 10:36:32;;;;;;;1.77;1.00;;;;;;;11.21;100.00;91548.72;6228299;22;20019;-80
2023/10/31 10:39:03;;;;;;;1.88;1.10;;;;;;;11.44;100.00;91551.88;6283253;22;20238;-80
2023/10/31 10:41:29;;;;;;;3.78;1.10;;;;;;;11.53;100.00;91558.94;6283112;22;20016;-79
2023/10/31 10:44:06;;;;;;;3.88;1.40;;;;;;;11.71;100.00;91568.28;6250694;22;20014;-80
2023/10/31 10:46:38;;;;;;;4.45;1.27;;;;;;;11.77;100.00;91574.88;6283550;22;20012;-80
2023/10/31 10:49:12;;;;;;;4.30;1.27;;;;;;;11.76;100.00;91581.22;6283043;22;20008;-80
2023/10/31 10:52:01;;;;;;;2.58;1.40;;;;;;;11.57;100.00;91570.34;6253874;22;20046;-81
2023/10/31 10:54:43;;;;;;;1.75;1.20;;;;;;;11.86;100.00;91577.47;6279021;22;20014;-79
2023/10/31 10:57:31;;;;;;;1.63;1.20;;;;;;;12.24;100.00;91572.22;6278181;22;20015;-80
2023/10/31 11:00:03;;;;;;;2.45;1.10;;;;;;;12.69;100.00;91568.97;6279284;22;20016;-80
2023/10/31 11:02:30;;;;;;;4.13;1.30;;;;;;;13.05;100.00;91562.34;6279402;22;20007;-80
2023/10/31 11:04:58;;;;;;;2.53;1.20;;;;;;;13.43;100.00;91565.88;6277361;22;20000;-82
2023/10/31 11:07:29;;;;;;;2.03;1.23;;;;;;;13.68;100.00;91571.94;6250282;22;20023;-81
2023/10/31 11:09:56;;;;;;;2.05;1.17;;;;;;;13.93;100.00;91573.50;6277046;22;20019;-82
2023/10/31 11:12:26;;;;;;;2.05;1.30;;;;;;;13.52;100.00;91562.06;6252101;22;20004;-79
2023/10/31 11:14:52;;;;;;;3.15;1.10;;;;;;;13.28;100.00;91567.25;6252487;22;20022;-81
2023/10/31 11:17:40;;;;;;;3.65;1.10;;;;;;;13.45;100.00;91563.69;6280324;22;20004;-81
2023/10/31 11:20:10;;;;;;;2.00;1.15;;;;;;;13.92;100.00;91571.97;6275432;22;20015;-81
2023/10/31 11:22:59;;;;;;;2.95;1.42;;;;;;;14.19;100.00;91572.41;6277018;22;20011;-81
2023/10/31 11:25:25;;;;;;;1.75;1.05;;;;;;;14.03;100.00;91576.81;6278346;22;20007;-80
2023/10/31 11:27:53;;;;;;;4.70;1.10;;;;;;;13.90;100.00;91573.41;6279946;22;20010;-80
2023/10/31 11:30:32;;;;;;;1.95;1.27;;;;;;;14.07;100.00;91582.94;6274701;22;20025;-82
2023/10/31 11:33:01;;;;;;;1.67;1.17;;;;;;;14.27;100.00;91579.41;6246336;22;20019;-82